Latest Weather Observations for Jervois

IDD60801

Issued at 9:51 pm CST Wednesday 12 August 2020 (issued every 10 minutes, with the page automatically refreshed every 10 minutes)

About weather observations | Map of weather stations | Latest weather observations for NT | Other Formats
Station Details ID: 015602 Name: JERVOIS Lat: -22.95 Lon: 136.14 Height: 328.0 m
Data from the previous 72 hours. | See also: Recent months at Jervois
Date/Time
CST
Temp
°C
App
Temp
°C
Dew
Point
°C
Rel
Hum
%
Delta-T
°C
Wind Press
QNH
hPa
Press
MSL
hPa
Rain since
9am
mm
Dir  Spd
km/h
Gust
km/h
Spd
kts
Gust
kts
12/09:30pm 20.1 17.7 4.2 35 7.8 WSW 6 13 3 7 1013.6 1013.0 0.0
12/09:00pm 21.8 19.3 4.8 33 8.5 WSW 7 9 4 5 1013.6 1013.0 0.0
12/08:30pm 22.2 19.7 4.7 32 8.8 NW 7 13 4 7 1013.6 1013.0 0.0
12/08:00pm 23.2 20.4 5.2 31 9.2 NW 9 11 5 6 1013.2 1012.6 0.0
12/07:30pm 23.1 20.1 4.1 29 9.5 NW 9 11 5 6 1012.9 1012.3 0.0
12/07:00pm 24.9 22.3 4.1 26 10.5 NW 7 9 4 5 1012.4 1011.8 0.0
12/06:30pm 26.7 24.0 3.9 23 11.6 WNW 7 11 4 6 1012.1 1011.5 0.0
12/06:00pm 28.6 23.4 3.5 20 12.8 WNW 20 32 11 17 1011.9 1011.3 0.0
12/05:30pm 29.5 26.3 4.9 21 12.9 NW 11 19 6 10 1011.8 1011.2 0.0
12/05:00pm 29.2 25.7 5.3 22 12.6 NW 13 20 7 11 1011.8 1011.2 0.0
12/04:30pm 29.7 26.3 5.7 22 12.8 W 13 20 7 11 1011.8 1011.2 0.0
12/04:00pm 29.5 27.3 6.2 23 12.5 NNE 7 15 4 8 1012.1 1011.5 0.0
12/03:30pm 30.0 27.0 6.0 22 12.9 NW 11 22 6 12 1012.3 1011.7 0.0
12/03:00pm 28.6 26.9 6.1 24 12.0 SW 4 13 2 7 1012.7 1012.1 0.0
12/02:30pm 28.7 26.1 6.1 24 12.1 WNW 9 17 5 9 1013.1 1012.5 0.0
12/02:00pm 27.9 24.5 6.1 25 11.6 WNW 13 20 7 11 1013.7 1013.2 0.0
12/01:30pm 27.3 25.6 6.1 26 11.2 W 4 11 2 6 1014.3 1013.8 0.0
12/01:00pm 27.0 23.2 5.9 26 11.1 WSW 15 24 8 13 1014.9 1014.3 0.0
12/12:30pm 26.7 23.5 6.7 28 10.7 SW 13 26 7 14 1015.1 1014.5 0.0
12/12:00pm 26.6 24.3 7.6 30 10.3 S 9 17 5 9 1015.7 1015.1 0.0
12/11:30am 25.9 22.1 7.5 31 9.9 WSW 17 24 9 13 1016.1 1015.5 0.0
12/11:00am 24.8 21.0 7.4 33 9.3 SSW 17 24 9 13 1016.4 1015.9 0.0
12/10:30am 24.4 21.0 7.5 34 9.0 SSW 15 24 8 13 1016.8 1016.3 0.0
12/10:00am 23.8 21.1 9.0 39 8.1 SSW 13 20 7 11 1017.2 1016.7 0.0
12/09:30am 23.3 20.9 10.0 43 7.4 SSW 13 22 7 12 1016.9 1016.4 0.0
12/09:00am 22.2 20.8 9.7 45 6.9 W 7 11 4 6 1016.7 1016.2 0.0
12/08:30am 20.0 18.5 9.3 50 5.8 W 7 13 4 7 1016.4 1015.9 0.0
12/08:00am 17.7 15.7 8.6 55 4.8 W 9 11 5 6 1015.9 1015.3 0.0
12/07:30am 15.6 13.7 7.4 58 4.1 W 7 9 4 5 1015.3 1014.7 0.0
12/07:00am 15.2 13.0 8.0 62 3.7 SSW 9 11 5 6 1015.0 1014.4 0.0
12/06:30am 13.3 11.0 5.5 59 3.7 SSW 7 9 4 5 1014.8 1014.2 0.0
12/06:00am 13.7 11.8 4.8 55 4.2 SSW 4 7 2 4 1014.5 1014.0 0.0
12/05:30am 15.4 13.2 6.2 54 4.5 SSW 7 9 4 5 1014.1 1013.6 0.0
12/05:00am 14.5 12.2 5.6 55 4.3 SSW 7 9 4 5 1013.7 1013.2 0.0
12/04:30am 14.5 12.2 5.6 55 4.3 SSW 7 7 4 4 1013.5 1012.9 0.0
12/04:00am 14.5 12.2 5.0 53 4.5 SSW 6 7 3 4 1013.3 1012.7 0.0
12/03:30am 16.0 13.7 5.9 51 5.0 SSW 7 9 4 5 1013.3 1012.7 0.0
12/03:00am 16.7 14.1 5.9 49 5.3 SSW 9 11 5 6 1013.4 1012.8 0.0
12/02:30am 16.8 14.5 5.7 48 5.5 SSW 7 11 4 6 1013.5 1012.9 0.0
12/02:00am 16.7 14.4 5.9 49 5.3 SSW 7 9 4 5 1013.5 1012.9 0.0
12/01:30am 17.3 14.9 5.3 45 5.9 SSW 7 11 4 6 1013.5 1012.9 0.0
12/01:00am 17.5 15.2 5.8 46 5.8 SSW 7 9 4 5 1013.7 1013.2 0.0
12/12:30am 16.5 14.2 4.9 46 5.6 SSW 6 9 3 5 1013.7 1013.2 0.0
12/12:00am 15.8 14.4 3.6 44 5.7 CALM 0 0 0 0 1013.6 1013.0 0.0
 
Date/Time
CST
Temp
°C
App
Temp
°C
Dew
Point
°C
Rel
Hum
%
Delta-T
°C
Wind Press
QNH
hPa
Press
MSL
hPa
Rain since
9am
mm
Dir  Spd
km/h
Gust
km/h
Spd
kts
Gust
kts
11/11:30pm 16.5 15.0 2.9 40 6.3 CALM 0 0 0 0 1013.6 1013.0 0.0
11/11:00pm 17.9 15.8 3.8 39 6.7 SSW 4 9 2 5 1013.5 1012.9 0.0
11/10:30pm 19.7 17.1 3.4 34 7.8 SSW 6 9 3 5 1013.5 1012.9 0.0
11/10:00pm 20.6 17.9 3.8 33 8.2 SW 7 11 4 6 1013.4 1012.8 0.0
11/09:30pm 17.8 15.1 2.5 36 7.1 W 6 7 3 4 1012.9 1012.3 0.0
11/09:00pm 18.5 15.6 1.5 32 7.8 W 6 7 3 4 1012.6 1012.0 0.0
11/08:30pm 19.9 16.9 2.3 31 8.3 W 7 7 4 4 1012.3 1011.7 0.0
11/08:00pm 22.1 19.1 2.2 27 9.5 W 7 7 4 4 1011.9 1011.3 0.0
11/07:30pm 24.2 21.3 2.4 24 10.6 W 7 11 4 6 1011.6 1011.0 0.0
11/07:00pm 26.0 22.7 2.7 22 11.5 W 9 11 5 6 1011.1 1010.6 0.0
11/06:30pm 27.6 23.2 2.6 20 12.5 W 15 24 8 13 1010.8 1010.2 0.0
11/06:00pm 28.7 22.9 2.1 18 13.3 W 22 33 12 18 1010.5 1009.9 0.0
11/05:30pm 29.7 23.7 1.2 16 14.1 W 22 35 12 19 1010.3 1009.7 0.0
11/05:00pm 30.0 23.5 -2.5 12 15.1 WNW 22 32 12 17 1010.0 1009.4 0.0
11/04:30pm 30.5 24.6 -2.1 12 15.3 WNW 19 30 10 16 1010.0 1009.4 0.0
11/04:00pm 30.3 23.8 -2.2 12 15.2 WNW 22 37 12 20 1010.0 1009.4 0.0
11/03:30pm 30.2 23.0 -2.3 12 15.2 NW 26 43 14 23 1010.1 1009.5 0.0
11/03:00pm 29.9 22.9 -3.7 11 15.3 WNW 24 37 13 20 1010.6 1010.0 0.0
11/02:39pm 29.2 21.5 -3.1 12 14.8 WNW 28 46 15 25 1011.1 1010.6 0.0
11/02:30pm 29.4 22.5 -2.9 12 14.8 WNW 24 39 13 21 1011.4 1010.8 0.0
11/02:00pm 28.4 21.4 -3.7 12 14.4 NW 24 35 13 19 1012.2 1011.6 0.0
11/01:30pm 28.3 21.3 -3.8 12 14.4 NW 24 35 13 19 1012.7 1012.1 0.0
11/01:00pm 28.0 20.6 -4.0 12 14.2 NW 26 39 14 21 1013.3 1012.7 0.0
11/12:30pm 27.1 20.0 -4.7 12 13.9 N 24 35 13 19 1013.7 1013.2 0.0
11/12:00pm 26.3 20.0 -4.3 13 13.4 NNW 20 30 11 16 1014.3 1013.8 0.0
11/11:30am 25.0 18.4 -3.4 15 12.5 N 22 30 12 16 1015.1 1014.5 0.0
11/11:00am 23.5 16.5 -3.7 16 11.7 N 24 35 13 19 1015.4 1014.8 0.0
11/10:30am 22.9 16.0 -2.6 18 11.2 N 24 33 13 18 1015.9 1015.3 0.0
11/10:00am 22.0 14.7 -2.7 19 10.7 N 26 35 14 19 1016.1 1015.5 0.0
11/09:30am 20.4 13.7 -1.4 23 9.6 N 24 35 13 19 1016.2 1015.6 0.0
11/09:00am 17.7 12.4 -0.5 29 7.9 N 17 22 9 12 1016.0 1015.4 0.0
11/08:30am 15.5 11.0 -0.3 34 6.8 N 13 19 7 10 1016.1 1015.5 0.0
11/08:00am 13.2 9.1 -0.4 39 5.7 N 11 15 6 8 1016.1 1015.5 0.0
11/07:30am 10.9 6.8 -0.2 46 4.6 N 11 13 6 7 1016.0 1015.4 0.0
11/07:00am 9.8 4.9 -0.4 49 4.1 N 15 17 8 9 1015.8 1015.2 0.0
11/06:30am 9.3 4.4 -0.8 49 4.0 N 15 17 8 9 1015.5 1014.9 0.0
11/06:00am 9.8 4.6 -0.1 50 4.0 N 17 20 9 11 1015.2 1014.6 0.0
11/05:30am 9.2 3.9 -0.4 51 3.9 N 17 24 9 13 1015.0 1014.4 0.0
11/05:00am 7.3 3.1 -0.6 57 3.1 N 11 13 6 7 1015.5 1014.9 0.0
11/04:30am 6.9 3.1 -1.0 57 3.1 N 9 11 5 6 1015.7 1015.1 0.0
11/04:00am 6.6 3.5 -2.3 53 3.3 N 4 7 2 4 1015.7 1015.1 0.0
11/03:30am 8.0 4.1 -1.8 50 3.8 N 9 9 5 5 1015.6 1015.0 0.0
11/03:00am 8.7 4.4 -1.7 48 4.0 N 11 13 6 7 1015.3 1014.7 0.0
11/02:30am 9.5 4.8 -1.5 46 4.3 N 13 15 7 8 1015.4 1014.8 0.0
11/02:00am 10.1 5.5 -1.3 45 4.5 NNE 13 15 7 8 1015.8 1015.2 0.0
11/01:30am 10.2 5.9 -1.8 43 4.7 NE 11 13 6 7 1016.2 1015.6 0.0
11/01:00am 10.2 5.9 -1.8 43 4.7 NE 11 13 6 7 1016.4 1015.9 0.0
11/12:30am 10.3 5.9 -2.4 41 4.9 NE 11 11 6 6 1016.5 1016.0 0.0
11/12:00am 10.8 6.4 -2.6 39 5.2 NE 11 13 6 7 1016.7 1016.2 0.0
 
Date/Time
CST
Temp
°C
App
Temp
°C
Dew
Point
°C
Rel
Hum
%
Delta-T
°C
Wind Press
QNH
hPa
Press
MSL
hPa
Rain since
9am
mm
Dir  Spd
km/h
Gust
km/h
Spd
kts
Gust
kts
10/11:30pm 11.6 7.2 -2.2 38 5.5 NE 11 13 6 7 1016.9 1016.4 0.0
10/11:00pm 11.9 7.1 -2.3 37 5.6 NE 13 13 7 7 1016.9 1016.4 0.0
10/10:30pm 10.9 6.5 -2.8 38 5.3 NE 11 13 6 7 1016.9 1016.4 0.0
10/10:00pm 11.2 7.2 -2.6 38 5.4 NE 9 11 5 6 1017.0 1016.5 0.0
10/09:30pm 11.2 7.0 -3.7 35 5.7 NE 9 11 5 6 1017.3 1016.8 0.0
10/09:00pm 11.5 7.8 -2.7 37 5.5 NE 7 9 4 5 1017.6 1017.1 0.0
10/08:30pm 12.8 9.3 -2.6 34 6.1 NE 6 7 3 4 1017.5 1017.0 0.0
10/08:00pm 13.1 9.7 -2.4 34 6.2 NE 6 7 3 4 1017.3 1016.8 0.0
10/07:30pm 14.2 10.7 -2.7 31 6.8 NE 6 7 3 4 1017.1 1016.6 0.0
10/07:00pm 15.8 12.0 -3.6 26 7.8 NE 7 9 4 5 1016.5 1016.0 0.0
10/06:30pm 18.2 14.7 -3.2 23 8.9 NE 6 9 3 5 1016.4 1015.9 0.0
10/06:00pm 20.5 16.8 -3.2 20 10.0 ENE 7 11 4 6 1016.3 1015.8 0.0
10/05:30pm 22.0 17.9 -3.4 18 10.9 NE 9 15 5 8 1016.3 1015.8 0.0
10/05:00pm 22.2 17.3 -3.2 18 10.9 ENE 13 20 7 11 1016.3 1015.8 0.0
10/04:30pm 22.4 18.2 -3.8 17 11.1 ENE 9 17 5 9 1016.2 1015.6 0.0
10/04:00pm 22.8 19.1 -2.7 18 11.1 E 7 13 4 7 1016.3 1015.8 0.0
10/03:30pm 22.3 18.2 -3.1 18 10.9 N 9 15 5 8 1016.6 1016.1 0.0
10/03:00pm 22.3 18.9 -2.4 19 10.8 S 6 15 3 8 1016.8 1016.3 0.0
10/02:30pm 22.5 18.5 -2.2 19 10.8 NE 9 15 5 8 1017.2 1016.7 0.0
10/02:00pm 21.2 16.3 -3.3 19 10.4 E 13 19 7 10 1017.7 1017.2 0.0
10/01:30pm 20.9 17.5 -2.2 21 10.0 ENE 6 15 3 8 1018.3 1017.7 0.0
10/01:00pm 20.3 16.7 -2.1 22 9.7 N 7 15 4 8 1018.9 1018.3 0.0
10/12:30pm 19.8 16.4 -0.8 25 9.1 N 7 17 4 9 1019.6 1019.1 0.0
10/12:00pm 19.3 15.6 -0.1 27 8.6 NNE 9 20 5 11 1020.2 1019.7 0.0
10/11:30am 18.2 15.1 1.3 32 7.7 ENE 7 17 4 9 1020.8 1020.3 0.0
10/11:00am 17.0 12.7 1.0 34 7.2 ENE 13 19 7 10 1021.4 1020.8 0.0
10/10:30am 16.4 12.7 2.4 39 6.4 NE 11 17 6 9 1021.8 1021.3 0.0
10/10:00am 15.3 10.9 2.8 43 5.7 NE 15 20 8 11 1022.1 1021.6 0.0
10/09:30am 14.0 10.0 2.9 47 5.0 NE 13 17 7 9 1022.1 1021.6 0.0
10/09:00am 12.7 8.8 3.4 53 4.2 NE 13 17 7 9 1021.8 1021.3 0.0
10/08:30am 11.0 8.2 2.1 54 3.9 SE 6 11 3 6 1021.7 1021.2 0.0
10/08:00am 6.5 4.5 -0.2 62 2.6 CALM 0 0 0 0 1021.8 1021.3 0.0
10/07:30am 2.8 -0.6 -1.9 71 1.7 SE 6 6 3 3 1021.8 1021.3 0.0
10/07:00am 1.3 -1.4 -2.8 74 1.5 SE 2 6 1 3 1021.6 1021.1 0.0
10/06:30am 1.6 -1.9 -2.9 72 1.5 SE 6 7 3 4 1021.2 1020.6 0.0
10/06:00am 2.0 -1.6 -2.3 73 1.5 SE 7 7 4 4 1020.9 1020.4 0.0
10/05:30am 2.0 -1.1 -2.7 71 1.6 SE 4 6 2 3 1020.5 1020.0 0.0
10/05:00am 2.1 -0.3 -3.2 68 1.8 CALM 0 0 0 0 1020.4 1019.9 0.0
10/04:30am 2.8 -0.3 -2.7 67 1.9 SE 4 7 2 4 1020.3 1019.8 0.0
10/04:00am 3.1 0.4 -2.8 65 2.1 SE 2 6 1 3 1020.2 1019.7 0.0
10/03:30am 3.1 0.0 -2.4 67 2.0 SE 4 7 2 4 1020.3 1019.8 0.0
10/03:00am 3.1 0.7 -3.2 63 2.2 CALM 0 0 0 0 1020.4 1019.9 0.0
10/02:30am 3.5 1.1 -3.3 61 2.4 CALM 0 0 0 0 1020.4 1019.9 0.0
10/02:00am 3.9 1.5 -3.1 60 2.5 CALM 0 0 0 0 1020.4 1019.9 0.0
10/01:30am 4.9 2.7 -1.5 63 2.4 CALM 0 0 0 0 1020.6 1020.1 0.0
10/01:00am 5.5 3.3 -1.9 59 2.8 CALM 0 0 0 0 1020.6 1020.1 0.0
10/12:30am 6.1 3.8 -2.5 54 3.2 CALM 0 0 0 0 1020.6 1020.1 0.0
10/12:00am 7.1 4.9 -1.6 54 3.3 CALM 0 0 0 0 1020.7 1020.2 0.0
 
Date/Time
CST
Temp
°C
App
Temp
°C
Dew
Point
°C
Rel
Hum
%
Delta-T
°C
Wind Press
QNH
hPa
Press
MSL
hPa
Rain since
9am
mm
Dir  Spd
km/h
Gust
km/h
Spd
kts
Gust
kts
09/11:30pm 7.4 4.0 -1.8 52 3.5 SE 6 9 3 5 1020.7 1020.2 0.0
09/11:00pm 8.2 6.0 -1.9 49 3.9 CALM 0 0 0 0 1020.7 1020.2 0.0
09/10:30pm 9.8 6.4 -1.9 44 4.6 SE 6 7 3 4 1020.7 1020.2 0.0
09/10:00pm 11.1 7.6 -1.6 41 5.1 SE 7 9 4 5 1020.7 1020.2 0.0

Other formats

Comma delimited format used in spreadsheet applications
http://www.bom.gov.au/fwo/IDD60801/IDD60801.94327.axf

JavaScript Object Notation format (JSON) in row-major order
http://www.bom.gov.au/fwo/IDD60801/IDD60801.94327.json

Data quality

Most of these data are generated automatically and are frequently updated. Quality checks on data are not normally performed. It is possible for incorrect values to appear. Refer to information at About Latest Weather Observations and please check the disclaimer before using these data.